Time;durP1;ratioP1;P1;durP2;ratioP2;P2;SDS_P1;SDS_P2;PMS_P1;PMS_P2;Temp;Humidity;BMP_temperature;BMP_pressure;BME280_temperature;BME280_humidity;BME280_pressure;Samples;Min_cycle;Max_cycle;Signal;HPM_P1;HPM_P2
2022/01/09 00:01:21;;;;;;;25.35;5.47;;;6.70;99.90;;;5.98;98.52;100593.72;4173546;28;20044;-69
2022/01/09 00:03:22;;;;;;;21.42;5.47;;;6.70;99.90;;;5.94;99.60;100592.34;4177512;28;20101;-69
2022/01/09 00:05:24;;;;;;;25.50;7.35;;;6.70;99.90;;;6.02;99.01;100597.75;4150024;28;20208;-68
2022/01/09 00:07:25;;;;;;;25.75;6.20;;;6.70;99.90;;;6.01;99.07;100599.53;4169492;28;20134;-69
2022/01/09 00:09:28;;;;;;;25.70;5.75;;;6.60;99.90;;;6.01;99.18;100591.66;4164634;28;20073;-69
2022/01/09 00:11:29;;;;;;;15.73;4.60;;;6.60;99.90;;;6.00;99.63;100603.09;4165406;28;20044;-68
2022/01/09 00:13:30;;;;;;;21.75;6.25;;;6.70;99.90;;;5.87;99.23;100581.56;4165607;28;20029;-69
2022/01/09 00:15:31;;;;;;;24.55;5.18;;;6.70;99.90;;;5.97;98.80;100594.69;4170993;28;20025;-69
2022/01/09 00:17:32;;;;;;;23.35;6.40;;;6.60;99.90;;;5.92;100.00;100597.69;4164318;28;20026;-68
2022/01/09 00:19:33;;;;;;;30.50;5.45;;;7.10;99.90;;;5.94;100.00;100594.94;4160784;28;20025;-69
2022/01/09 00:21:34;;;;;;;22.95;5.13;;;6.60;99.90;;;5.92;100.00;100599.47;4164747;28;20028;-69
2022/01/09 00:23:35;;;;;;;21.95;5.32;;;6.70;99.90;;;6.08;100.00;100599.84;4160499;28;20037;-68
2022/01/09 00:25:36;;;;;;;19.83;6.05;;;6.70;99.90;;;6.09;99.33;100589.22;4141780;28;20064;-68
2022/01/09 00:27:37;;;;;;;28.92;5.93;;;6.70;99.90;;;5.98;99.82;100589.31;4149350;28;20022;-68
2022/01/09 00:29:38;;;;;;;30.83;8.13;;;6.80;99.90;;;6.06;99.45;100602.56;4149351;28;20056;-69
2022/01/09 00:31:39;;;;;;;22.92;5.53;;;6.80;99.90;;;6.05;99.92;100602.72;4161662;28;20036;-69
2022/01/09 00:33:40;;;;;;;21.02;5.30;;;6.70;99.90;;;5.99;100.00;100598.00;4164670;28;20548;-69
2022/01/09 00:35:41;;;;;;;22.30;6.57;;;6.80;99.90;;;6.03;99.25;100604.66;4166006;28;20037;-69
2022/01/09 00:37:42;;;;;;;20.30;5.50;;;6.70;99.90;;;6.03;99.37;100608.06;4153926;28;20739;-69
2022/01/09 00:39:43;;;;;;;24.80;5.97;;;6.70;99.90;;;6.10;99.22;100613.63;4160476;28;20037;-69
2022/01/09 00:41:44;;;;;;;26.95;8.00;;;6.80;99.90;;;6.20;97.91;100606.66;4158290;28;20580;-69
2022/01/09 00:43:45;;;;;;;25.63;7.30;;;6.80;99.90;;;6.21;98.26;100603.09;4155111;28;20053;-69
2022/01/09 00:45:46;;;;;;;21.10;5.18;;;6.80;99.90;;;6.24;97.84;100600.19;4150721;28;20508;-69
2022/01/09 00:47:47;;;;;;;23.67;6.50;;;6.80;99.90;;;6.03;99.39;100594.97;4150358;28;20026;-69
2022/01/09 00:49:48;;;;;;;21.75;7.32;;;6.80;99.90;;;6.08;99.17;100589.38;4133216;28;20114;-69
2022/01/09 00:51:49;;;;;;;15.25;4.88;;;6.80;99.90;;;6.07;99.61;100596.38;4159387;28;20033;-69
2022/01/09 00:53:49;;;;;;;20.55;7.80;;;6.80;99.90;;;6.04;99.82;100593.19;4136461;28;20819;-69
2022/01/09 00:55:50;;;;;;;23.63;5.13;;;7.00;99.90;;;6.08;100.00;100584.97;4183006;28;20029;-69
2022/01/09 00:57:51;;;;;;;21.23;6.00;;;6.80;99.90;;;6.18;99.32;100592.03;4159266;28;20076;-69
2022/01/09 00:59:52;;;;;;;19.42;6.05;;;6.80;99.90;;;6.23;98.38;100584.59;4157281;28;20037;-69
2022/01/09 01:01:53;;;;;;;23.17;6.80;;;6.80;99.90;;;6.35;98.12;100588.78;4162144;28;20022;-69
2022/01/09 01:03:54;;;;;;;20.70;6.10;;;6.60;99.90;;;6.07;98.82;100577.22;4165653;28;20029;-69
2022/01/09 01:05:55;;;;;;;24.58;6.03;;;6.80;99.90;;;6.28;98.51;100585.84;4160227;28;20025;-69
2022/01/09 01:07:56;;;;;;;16.67;6.65;;;6.90;99.90;;;6.21;98.65;100574.28;4150543;28;20050;-68
2022/01/09 01:09:57;;;;;;;19.70;6.47;;;6.90;99.90;;;6.23;98.54;100587.22;4162400;28;20017;-69
2022/01/09 01:11:59;;;;;;;22.17;5.60;;;6.90;99.90;;;6.21;98.75;100583.91;4165657;28;20526;-69
2022/01/09 01:14:00;;;;;;;21.38;5.30;;;7.00;99.90;;;6.18;99.51;100589.41;4165767;28;20021;-69
2022/01/09 01:16:01;;;;;;;21.98;5.40;;;6.90;99.90;;;6.07;98.96;100569.38;4158432;28;20061;-69
2022/01/09 01:18:03;;;;;;;18.83;4.30;;;6.90;99.90;;;6.31;99.15;100588.22;4178642;28;20025;-69
2022/01/09 01:20:05;;;;;;;22.48;5.15;;;7.00;99.90;;;6.24;98.38;100581.88;4156765;28;20033;-69
2022/01/09 01:22:06;;;;;;;22.45;4.53;;;7.00;99.90;;;6.27;98.73;100586.00;4163270;28;20049;-69
2022/01/09 01:24:07;;;;;;;22.15;5.60;;;7.10;99.90;;;6.28;98.82;100587.66;4162308;28;20397;-69
2022/01/09 01:26:08;;;;;;;20.50;4.70;;;7.20;99.90;;;6.33;98.65;100606.44;4156843;28;20104;-69
2022/01/09 01:28:09;;;;;;;18.42;5.15;;;7.10;99.90;;;6.38;98.89;100610.31;4168619;28;20033;-68
2022/01/09 01:30:11;;;;;;;19.00;4.68;;;7.10;99.90;;;6.33;98.96;100606.44;4158704;28;20459;-69
2022/01/09 01:32:12;;;;;;;19.60;5.20;;;7.10;99.90;;;6.25;99.31;100599.22;4168471;28;20021;-69
2022/01/09 01:34:13;;;;;;;22.58;6.53;;;7.00;99.90;;;6.33;99.57;100611.66;4152302;28;20090;-69
2022/01/09 01:36:13;;;;;;;17.83;4.40;;;7.00;99.90;;;6.34;99.75;100608.91;4153485;28;20132;-69
2022/01/09 01:38:14;;;;;;;17.60;5.97;;;7.00;99.90;;;6.40;98.94;100608.38;4152229;28;20026;-69
2022/01/09 01:40:19;;;;;;;18.17;5.68;;;7.20;99.90;;;6.42;99.20;100609.06;4161700;28;20440;-69
2022/01/09 01:42:20;;;;;;;20.23;5.55;;;7.20;99.90;;;6.67;98.27;100618.25;4168550;28;20029;-69
2022/01/09 01:44:21;;;;;;;14.32;4.82;;;7.20;99.90;;;6.57;98.41;100618.22;4169866;28;20029;-69
2022/01/09 01:46:22;;;;;;;16.83;4.45;;;7.30;99.90;;;6.51;99.33;100626.59;4169294;28;20036;-69
2022/01/09 01:48:23;;;;;;;23.45;4.70;;;7.30;99.90;;;6.67;98.29;100632.19;4158707;28;20705;-69
2022/01/09 01:50:24;;;;;;;19.10;4.38;;;7.30;99.90;;;6.70;98.64;100628.47;4163578;28;20033;-69
2022/01/09 01:52:34;;;;;;;21.38;4.85;;;7.40;99.90;;;6.63;99.10;100625.56;4153644;28;20085;-69
2022/01/09 01:54:35;;;;;;;23.17;5.20;;;7.40;99.90;;;6.67;98.56;100641.84;4155232;28;20026;-69
2022/01/09 01:56:37;;;;;;;12.13;4.72;;;7.40;99.90;;;6.69;98.96;100645.16;4165921;28;20026;-69
2022/01/09 01:58:37;;;;;;;13.73;4.25;;;7.90;99.90;;;6.67;99.39;100632.19;4151861;28;20026;-68
2022/01/09 02:00:42;;;;;;;16.80;4.80;;;7.50;99.90;;;6.69;99.48;100630.25;4169496;28;20397;-69
2022/01/09 02:02:43;;;;;;;20.17;4.93;;;7.50;99.90;;;6.69;98.96;100619.78;4161493;28;20096;-69
2022/01/09 02:04:44;;;;;;;10.00;3.90;;;7.60;99.90;;;6.83;99.20;100620.38;4135672;28;20510;-69
2022/01/09 02:06:45;;;;;;;19.83;5.43;;;7.50;99.90;;;6.72;99.59;100616.03;4152621;28;20124;-69
2022/01/09 02:08:46;;;;;;;18.67;4.28;;;7.60;99.90;;;6.77;100.00;100615.66;4155191;28;20362;-69
2022/01/09 02:10:48;;;;;;;17.40;5.90;;;7.60;99.90;;;6.77;100.00;100624.34;4151816;28;20407;-69
2022/01/09 02:12:52;;;;;;;10.20;3.65;;;7.60;99.90;;;6.90;100.00;100635.41;4158144;28;20041;-68
2022/01/09 02:14:53;;;;;;;14.55;4.70;;;7.30;99.90;;;6.88;100.00;100639.97;4165176;28;20045;-69
2022/01/09 02:16:54;;;;;;;15.90;5.70;;;8.20;99.90;;;6.93;100.00;100627.28;4154825;28;20034;-69
2022/01/09 02:18:58;;;;;;;12.85;4.75;;;7.70;99.90;;;6.78;100.00;100638.31;4162433;28;20398;-69
2022/01/09 02:20:59;;;;;;;19.25;5.45;;;7.60;99.90;;;6.75;100.00;100634.13;4162373;28;20029;-69
2022/01/09 02:23:01;;;;;;;18.25;5.43;;;7.60;99.90;;;6.83;100.00;100636.94;4196835;28;20523;-69
2022/01/09 02:25:02;;;;;;;14.30;3.88;;;7.60;99.90;;;6.77;100.00;100629.59;4167937;28;20034;-69
2022/01/09 02:27:07;;;;;;;16.63;4.60;;;7.50;99.90;;;6.78;100.00;100643.53;4157737;28;20021;-68
2022/01/09 02:29:08;;;;;;;18.13;4.20;;;7.60;99.90;;;6.56;100.00;100676.84;4179357;28;20028;-69
2022/01/09 02:31:09;;;;;;;18.33;5.80;;;7.50;99.90;;;6.71;100.00;100684.34;4138402;28;20019;-69
2022/01/09 02:33:16;;;;;;;16.45;4.22;;;7.50;99.90;;;6.53;100.00;100678.91;4151371;28;20083;-69
2022/01/09 02:35:20;;;;;;;16.90;4.22;;;7.50;99.90;;;6.68;100.00;100651.38;4151465;28;20579;-70
2022/01/09 02:37:21;;;;;;;16.50;4.07;;;7.50;99.90;;;6.64;100.00;100647.34;4155183;28;20033;-69
2022/01/09 02:39:22;;;;;;;16.35;4.30;;;7.50;99.90;;;6.47;100.00;100646.19;4151294;28;20563;-69
2022/01/09 02:41:23;;;;;;;11.90;3.05;;;7.40;99.90;;;6.51;100.00;100638.91;4156857;28;20025;-69
2022/01/09 02:43:24;;;;;;;10.73;3.80;;;7.40;99.90;;;6.41;100.00;100632.78;4159905;28;20036;-69
2022/01/09 02:45:27;;;;;;;15.10;3.58;;;7.30;99.90;;;6.42;100.00;100637.88;4161342;28;20062;-69
2022/01/09 02:47:31;;;;;;;9.77;3.03;;;7.30;99.90;;;6.25;100.00;100646.38;4151935;28;20025;-69
2022/01/09 02:49:33;;;;;;;13.57;3.25;;;7.30;99.90;;;6.51;100.00;100652.81;4151364;28;20514;-69
2022/01/09 02:51:40;;;;;;;14.57;3.33;;;7.30;99.90;;;6.42;100.00;100645.75;4151307;28;20029;-69
2022/01/09 02:53:45;;;;;;;7.95;3.13;;;7.20;99.90;;;6.38;100.00;100633.88;4164108;28;20577;-69
2022/01/09 02:55:46;;;;;;;14.73;4.78;;;7.30;99.90;;;6.36;100.00;100635.00;4175586;28;20183;-69
2022/01/09 02:57:52;;;;;;;13.18;3.42;;;7.20;99.90;;;6.17;100.00;100629.66;4153919;28;20041;-69
2022/01/09 02:59:53;;;;;;;13.23;3.50;;;7.00;99.90;;;6.31;100.00;100622.28;4160672;28;20079;-70
2022/01/09 03:01:54;;;;;;;10.02;3.70;;;7.10;99.90;;;5.97;100.00;100632.16;4168315;28;20462;-70
2022/01/09 03:03:54;;;;;;;8.65;2.72;;;7.00;99.90;;;6.01;100.00;100638.81;4151374;28;20071;-69
2022/01/09 03:05:55;;;;;;;12.25;3.88;;;6.80;99.90;;;6.04;100.00;100654.25;4140465;28;20022;-69
2022/01/09 03:07:58;;;;;;;14.48;4.53;;;6.80;99.90;;;6.10;100.00;100643.25;4161192;28;20049;-69
2022/01/09 03:09:59;;;;;;;11.63;3.30;;;6.80;99.90;;;6.05;100.00;100632.34;4168770;28;20029;-69
2022/01/09 03:12:00;;;;;;;9.88;3.65;;;7.60;99.90;;;6.10;100.00;100629.34;4151228;28;20541;-69
2022/01/09 03:14:01;;;;;;;10.90;3.47;;;6.70;99.90;;;6.09;100.00;100635.56;4156828;28;20591;-69
2022/01/09 03:16:02;;;;;;;10.48;3.40;;;6.70;99.90;;;6.13;100.00;100635.16;4166840;28;20027;-69
2022/01/09 03:18:04;;;;;;;13.10;4.50;;;6.70;99.90;;;6.16;100.00;100627.97;4168348;28;20032;-69
2022/01/09 03:20:09;;;;;;;11.38;3.75;;;6.70;99.90;;;6.03;100.00;100626.41;4151075;28;20021;-69
2022/01/09 03:22:10;;;;;;;12.45;3.10;;;6.60;99.90;;;6.15;100.00;100623.72;4153647;28;20104;-71
2022/01/09 03:24:11;;;;;;;11.10;3.53;;;6.60;99.90;;;6.25;100.00;100622.78;4150860;28;20058;-70
2022/01/09 03:26:12;;;;;;;13.00;3.55;;;6.60;99.90;;;6.24;100.00;100602.81;4150616;28;20030;-69
2022/01/09 03:28:13;;;;;;;9.25;3.75;;;6.60;99.90;;;6.30;100.00;100612.75;4169889;28;20021;-69
2022/01/09 03:30:14;;;;;;;15.98;5.20;;;6.60;99.90;;;6.26;100.00;100611.38;4170772;28;20073;-69
2022/01/09 03:32:15;;;;;;;17.77;4.80;;;6.70;99.90;;;6.14;100.00;100612.41;4159832;28;20032;-69
2022/01/09 03:34:16;;;;;;;14.15;4.05;;;6.70;99.90;;;6.18;100.00;100600.72;4154115;28;20474;-69
2022/01/09 03:36:17;;;;;;;15.40;3.95;;;6.70;99.90;;;6.19;100.00;100599.75;4166170;28;20155;-69
2022/01/09 03:38:18;;;;;;;15.45;5.78;;;6.80;99.90;;;6.30;100.00;100607.50;4160776;28;20092;-69
2022/01/09 03:40:22;;;;;;;14.85;4.63;;;6.90;99.90;;;6.37;100.00;100603.41;4159421;28;20083;-68
2022/01/09 03:42:23;;;;;;;11.20;4.03;;;6.90;99.90;;;6.38;100.00;100605.06;4150498;28;20513;-69
2022/01/09 03:44:27;;;;;;;14.23;5.47;;;7.00;99.90;;;6.45;100.00;100621.09;4177071;28;20046;-69
2022/01/09 03:46:28;;;;;;;10.18;5.05;;;7.00;99.90;;;6.45;100.00;100624.53;4156668;28;20030;-69
2022/01/09 03:48:30;;;;;;;15.48;5.07;;;7.10;99.90;;;6.77;100.00;100636.63;4158077;28;20169;-69
2022/01/09 03:50:32;;;;;;;11.85;4.00;;;7.20;99.90;;;6.87;100.00;100653.22;4150425;28;20070;-69
2022/01/09 03:52:37;;;;;;;14.23;3.42;;;7.30;99.90;;;6.93;100.00;100657.94;4160181;28;20097;-69
2022/01/09 03:54:38;;;;;;;14.40;4.00;;;7.40;99.90;;;6.89;100.00;100654.75;4168448;28;20060;-69
2022/01/09 03:56:39;;;;;;;14.30;3.72;;;7.50;99.90;;;6.86;100.00;100659.44;4146901;28;20030;-69
2022/01/09 03:58:40;;;;;;;18.00;4.40;;;7.40;99.90;;;6.53;100.00;100643.06;4166685;28;20117;-69
2022/01/09 04:00:41;;;;;;;19.20;3.17;;;7.40;99.90;;;6.26;100.00;100636.72;4149977;28;20061;-69
2022/01/09 04:02:43;;;;;;;9.05;3.03;;;7.30;99.90;;;6.10;100.00;100614.47;4166359;28;20053;-69
2022/01/09 04:04:44;;;;;;;10.80;3.45;;;7.30;99.90;;;6.29;100.00;100615.50;4157854;28;20033;-69
2022/01/09 04:06:48;;;;;;;10.35;4.05;;;7.10;99.90;;;6.42;100.00;100622.16;4162898;28;20049;-69
2022/01/09 04:08:51;;;;;;;;;;;7.10;99.90;;;6.53;100.00;100606.38;4166905;28;20036;-69
2022/01/09 04:10:52;;;;;;;17.75;3.35;;;7.00;99.90;;;6.52;100.00;100604.69;4159449;28;20438;-69
2022/01/09 04:12:59;;;;;;;12.55;4.55;;;7.10;99.90;;;6.14;100.00;100604.56;4161702;28;20026;-69
2022/01/09 04:15:07;;;;;;;12.00;3.80;;;6.90;99.90;;;6.17;100.00;100606.06;4150589;28;20550;-69
2022/01/09 04:17:14;;;;;;;14.38;4.45;;;6.80;99.90;;;6.12;100.00;100602.06;4166292;28;20117;-69
2022/01/09 04:19:15;;;;;;;18.58;4.45;;;6.80;99.90;;;6.18;100.00;100595.50;4157933;28;20425;-69
2022/01/09 04:21:16;;;;;;;13.27;4.65;;;6.70;99.90;;;6.18;100.00;100595.50;4153333;28;20029;-69
2022/01/09 04:23:19;;;;;;;16.95;4.53;;;6.70;99.90;;;6.15;100.00;100595.75;4166132;28;20033;-69
2022/01/09 04:25:20;;;;;;;16.75;4.90;;;6.60;99.90;;;5.99;100.00;100593.59;4151184;28;20038;-69
2022/01/09 04:27:21;;;;;;;12.45;3.83;;;6.60;99.90;;;5.99;100.00;100598.84;4149709;28;20061;-69
2022/01/09 04:29:22;;;;;;;16.30;5.40;;;6.50;99.90;;;5.96;100.00;100587.78;4149818;28;20036;-69
2022/01/09 04:31:23;;;;;;;15.68;5.32;;;6.50;99.90;;;5.93;100.00;100598.53;4167079;28;20041;-69
2022/01/09 04:33:24;;;;;;;15.23;4.95;;;6.40;99.90;;;6.05;100.00;100597.47;4159814;28;20080;-69
2022/01/09 04:35:25;;;;;;;20.80;5.55;;;6.40;99.90;;;5.85;100.00;100591.34;4143084;28;20041;-69
2022/01/09 04:37:26;;;;;;;14.93;5.75;;;6.40;99.90;;;5.95;100.00;100597.44;4162718;28;20072;-69
2022/01/09 04:39:28;;;;;;;21.85;4.97;;;6.30;99.90;;;5.95;100.00;100596.59;4166082;28;20025;-69
2022/01/09 04:41:29;;;;;;;21.50;6.13;;;6.30;99.90;;;5.98;100.00;100589.31;4166127;28;20057;-69
2022/01/09 04:43:30;;;;;;;19.80;6.18;;;6.40;99.90;;;6.00;100.00;100600.47;4166031;28;20037;-69
2022/01/09 04:45:31;;;;;;;14.00;5.38;;;6.60;99.90;;;6.22;100.00;100614.38;4154395;28;20393;-69
2022/01/09 04:47:32;;;;;;;15.30;5.32;;;6.60;99.90;;;6.19;100.00;100604.16;4165537;28;20077;-69
2022/01/09 04:49:38;;;;;;;14.30;6.30;;;6.70;99.90;;;6.26;100.00;100610.53;4166047;28;20025;-69
2022/01/09 04:51:39;;;;;;;27.50;5.57;;;6.70;99.90;;;6.38;100.00;100605.06;4168985;28;20026;-69
2022/01/09 04:53:40;;;;;;;14.63;4.55;;;6.70;99.90;;;6.27;100.00;100592.06;4153018;28;20034;-69
2022/01/09 04:55:49;;;;;;;15.32;5.05;;;6.10;99.90;;;6.40;100.00;100587.41;4176450;28;20107;-69
2022/01/09 04:57:50;;;;;;;15.93;4.72;;;6.80;99.90;;;6.30;100.00;100594.41;4153644;28;20046;-69
2022/01/09 04:59:51;;;;;;;18.85;5.07;;;6.80;99.90;;;6.32;100.00;100595.13;4169262;28;20091;-69
2022/01/09 05:01:52;;;;;;;14.20;4.57;;;6.80;99.90;;;6.33;100.00;100593.34;4169004;28;20044;-69
2022/01/09 05:03:53;;;;;;;21.45;5.65;;;7.00;99.90;;;6.30;100.00;100597.03;4153300;28;20036;-69
2022/01/09 05:05:54;;;;;;;15.32;4.25;;;6.80;99.90;;;6.40;100.00;100600.53;4152736;28;20026;-69
2022/01/09 05:07:55;;;;;;;17.17;4.95;;;6.90;99.90;;;6.19;100.00;100602.38;4153915;28;20607;-69
2022/01/09 05:09:55;;;;;;;15.02;4.50;;;6.90;99.90;;;6.20;100.00;100606.66;4165171;28;20060;-69
2022/01/09 05:11:57;;;;;;;16.42;4.60;;;6.90;99.90;;;6.04;100.00;100595.81;4152580;28;20029;-69
2022/01/09 05:13:58;;;;;;;16.65;4.70;;;6.90;99.90;;;6.18;100.00;100581.56;4165499;28;20037;-69
2022/01/09 05:16:00;;;;;;;18.88;5.68;;;6.70;99.90;;;6.18;100.00;100585.00;4171959;28;20123;-69
2022/01/09 05:18:04;;;;;;;19.13;4.70;;;6.80;99.90;;;6.06;100.00;100583.44;4161680;28;20045;-69
2022/01/09 05:20:06;;;;;;;18.42;4.13;;;6.70;99.90;;;6.12;100.00;100588.16;4168743;28;20021;-69
2022/01/09 05:22:08;;;;;;;16.17;3.78;;;6.80;99.90;;;6.26;100.00;100577.31;4162234;28;20117;-69
2022/01/09 05:24:09;;;;;;;10.68;4.13;;;6.80;99.90;;;6.23;100.00;100576.75;4162689;28;20025;-69
2022/01/09 05:26:10;;;;;;;13.48;3.88;;;6.80;99.90;;;6.26;100.00;100569.47;4155258;28;20045;-69
2022/01/09 05:28:11;;;;;;;17.10;5.40;;;6.70;99.90;;;6.24;100.00;100571.38;4168913;28;20033;-69
2022/01/09 05:30:12;;;;;;;22.13;5.55;;;6.70;99.90;;;6.30;100.00;100562.97;4168804;28;20042;-69
2022/01/09 05:32:12;;;;;;;15.63;4.90;;;6.90;99.90;;;6.36;100.00;100570.28;4168777;28;20045;-69
2022/01/09 05:34:14;;;;;;;20.48;5.88;;;6.80;99.90;;;6.32;100.00;100557.63;4169874;28;20025;-69
2022/01/09 05:36:15;;;;;;;14.23;5.63;;;6.80;99.90;;;6.36;100.00;100559.81;4164939;28;20026;-69
2022/01/09 05:38:18;;;;;;;17.98;5.80;;;6.80;99.90;;;6.29;100.00;100552.63;4152370;28;20080;-68
2022/01/09 05:40:19;;;;;;;17.88;5.25;;;6.80;99.90;;;6.32;100.00;100547.97;4142078;28;20022;-69
2022/01/09 05:42:20;;;;;;;12.80;4.40;;;6.80;99.90;;;6.30;100.00;100555.09;4166046;28;20033;-69
2022/01/09 05:44:21;;;;;;;19.40;5.25;;;6.80;99.90;;;6.32;100.00;100545.34;4168655;28;20076;-69
2022/01/09 05:46:22;;;;;;;22.98;5.80;;;6.70;99.90;;;6.41;100.00;100551.56;4169481;28;20040;-69
2022/01/09 05:48:23;;;;;;;19.70;5.53;;;6.80;99.90;;;6.24;100.00;100550.44;4158126;28;20026;-69
2022/01/09 05:50:24;;;;;;;14.95;5.00;;;6.90;99.90;;;6.35;100.00;100558.19;4168674;28;20040;-69
2022/01/09 05:52:25;;;;;;;11.07;3.67;;;6.80;99.90;;;6.36;100.00;100556.41;4150287;28;20022;-69
2022/01/09 05:54:27;;;;;;;16.27;4.65;;;6.80;99.90;;;6.35;100.00;100562.59;4158154;28;20030;-69
2022/01/09 05:56:28;;;;;;;16.40;3.92;;;6.90;99.90;;;6.43;100.00;100566.19;4152641;28;20517;-69
2022/01/09 05:58:29;;;;;;;18.35;6.35;;;6.80;99.90;;;6.36;100.00;100554.56;4155286;28;20481;-69
2022/01/09 06:00:30;;;;;;;17.25;5.90;;;6.80;99.90;;;6.40;100.00;100555.16;4154359;28;20030;-69
2022/01/09 06:02:31;;;;;;;12.88;6.50;;;6.80;99.90;;;6.51;100.00;100560.31;4176722;28;20037;-69
2022/01/09 06:04:32;;;;;;;12.85;5.40;;;6.80;99.90;;;6.46;100.00;100565.94;4159443;28;20036;-69
2022/01/09 06:06:33;;;;;;;19.50;5.53;;;6.90;99.90;;;6.40;100.00;100571.69;4158269;28;20033;-69
2022/01/09 06:08:34;;;;;;;12.82;4.53;;;6.90;99.90;;;6.37;100.00;100551.00;4152809;28;20121;-69
2022/01/09 06:10:35;;;;;;;14.25;5.47;;;6.90;99.90;;;6.40;100.00;100555.97;4169450;28;20041;-69
2022/01/09 06:12:38;;;;;;;17.75;5.40;;;6.90;99.90;;;6.50;100.00;100583.06;4169651;28;20050;-69
2022/01/09 06:14:39;;;;;;;19.10;5.28;;;6.90;99.90;;;6.59;100.00;100590.09;4157038;28;20117;-69
2022/01/09 06:16:39;;;;;;;14.13;4.15;;;7.00;99.90;;;6.56;100.00;100582.50;4166877;28;20468;-69
2022/01/09 06:18:40;;;;;;;14.70;5.15;;;7.00;99.90;;;6.75;100.00;100565.97;4151739;28;20033;-69
2022/01/09 06:20:41;;;;;;;14.68;4.90;;;7.10;99.90;;;6.46;100.00;100563.31;4168058;28;20872;-69
2022/01/09 06:22:44;;;;;;;15.07;4.90;;;7.20;99.90;;;6.22;100.00;100562.81;4158171;28;20033;-69
2022/01/09 06:24:55;;;;;;;19.45;4.07;;;7.30;99.90;;;6.34;100.00;100553.91;4166098;28;20032;-69
2022/01/09 06:26:55;;;;;;;16.92;4.18;;;7.20;99.90;;;6.40;100.00;100558.59;4163001;28;20105;-69
2022/01/09 06:28:56;;;;;;;16.90;4.30;;;7.20;99.90;;;6.50;100.00;100549.00;4152917;28;20393;-69
2022/01/09 06:30:57;;;;;;;13.73;4.32;;;7.20;99.90;;;6.61;100.00;100559.34;4151072;28;20030;-69
2022/01/09 06:32:58;;;;;;;13.88;3.85;;;7.30;99.90;;;6.55;100.00;100557.25;4167776;28;20500;-69
2022/01/09 06:34:59;;;;;;;15.18;3.33;;;7.30;99.90;;;6.52;100.00;100554.91;4140721;28;20084;-69
2022/01/09 06:37:00;;;;;;;17.80;4.00;;;7.30;99.90;;;6.60;100.00;100547.19;4159929;28;20033;-69
2022/01/09 06:39:02;;;;;;;13.35;3.55;;;7.30;99.90;;;6.65;100.00;100558.13;4163793;28;20034;-69
2022/01/09 06:41:03;;;;;;;16.85;3.92;;;7.00;99.90;;;6.64;100.00;100564.31;4153155;28;20041;-69
2022/01/09 06:43:04;;;;;;;11.23;4.18;;;7.20;99.90;;;6.66;100.00;100545.81;4163586;28;20031;-69
2022/01/09 06:45:06;;;;;;;14.93;5.03;;;7.20;99.90;;;6.50;100.00;100549.00;4166171;28;20076;-69
2022/01/09 06:47:08;;;;;;;14.15;4.13;;;7.20;99.90;;;6.62;100.00;100550.53;4164676;28;20079;-69
2022/01/09 06:49:09;;;;;;;10.38;3.17;;;7.20;99.90;;;6.66;100.00;100546.66;4154367;28;20033;-69
2022/01/09 06:51:10;;;;;;;16.23;3.95;;;7.20;99.90;;;6.60;100.00;100531.47;4159684;28;20049;-69
2022/01/09 06:53:11;;;;;;;11.13;3.60;;;7.20;99.90;;;6.63;100.00;100543.50;4168661;28;20030;-69
2022/01/09 06:55:12;;;;;;;10.93;3.17;;;8.20;99.90;;;6.58;100.00;100537.81;4155125;28;20021;-69
2022/01/09 06:57:13;;;;;;;10.13;3.40;;;6.10;99.90;;;6.54;100.00;100537.25;4157513;28;20749;-69
2022/01/09 06:59:14;;;;;;;13.52;3.25;;;6.90;99.90;;;6.52;100.00;100533.94;4154308;28;20112;-69
2022/01/09 07:01:15;;;;;;;11.73;3.33;;;7.10;99.90;;;6.56;100.00;100545.81;4158248;28;20029;-69
2022/01/09 07:03:16;;;;;;;13.15;3.88;;;7.10;99.90;;;6.57;100.00;100541.41;4167406;28;20021;-69
2022/01/09 07:05:17;;;;;;;11.48;3.63;;;7.00;99.90;;;6.63;100.00;100540.88;4167254;28;20414;-69
2022/01/09 07:07:18;;;;;;;8.38;3.80;;;7.10;99.90;;;6.63;100.00;100544.31;4163977;28;20054;-69
2022/01/09 07:09:19;;;;;;;19.17;6.35;;;7.10;99.90;;;6.51;100.00;100537.53;4152223;28;20584;-69
2022/01/09 07:11:20;;;;;;;11.65;5.00;;;7.10;99.90;;;6.48;100.00;100534.38;4152241;28;20041;-69
2022/01/09 07:13:21;;;;;;;15.20;3.83;;;7.10;99.90;;;6.44;100.00;100533.81;4164533;28;20517;-69
2022/01/09 07:15:22;;;;;;;16.23;3.97;;;6.90;99.90;;;6.38;100.00;100534.34;4162778;28;20025;-70
2022/01/09 07:17:23;;;;;;;16.08;3.58;;;6.90;99.90;;;6.26;100.00;100530.16;4158027;28;20041;-70
2022/01/09 07:19:24;;;;;;;16.65;3.65;;;6.80;99.90;;;6.24;100.00;100529.47;4179428;28;20036;-69
2022/01/09 07:21:25;;;;;;;10.80;4.10;;;6.80;99.90;;;6.23;100.00;100529.59;4156835;28;20032;-69
2022/01/09 07:23:26;;;;;;;10.70;3.83;;;6.70;99.90;;;6.07;100.00;100519.63;4155098;28;20491;-69
2022/01/09 07:25:27;;;;;;;12.23;3.20;;;6.80;99.90;;;6.24;100.00;100534.72;4167065;28;20025;-69
2022/01/09 07:27:28;;;;;;;12.57;4.00;;;6.70;99.90;;;6.27;100.00;100529.22;4156091;28;20449;-69
2022/01/09 07:29:29;;;;;;;16.17;3.58;;;6.70;99.90;;;6.36;100.00;100528.38;4164770;28;20072;-70
2022/01/09 07:31:30;;;;;;;16.20;3.90;;;6.80;99.90;;;6.43;100.00;100534.75;4170876;28;20035;-70
2022/01/09 07:33:31;;;;;;;13.35;4.28;;;6.90;99.90;;;6.34;100.00;100529.47;4168175;28;20042;-70
2022/01/09 07:35:32;;;;;;;13.57;4.18;;;6.90;99.90;;;6.30;100.00;100549.88;4172131;28;20420;-70
2022/01/09 07:37:33;;;;;;;16.42;3.78;;;6.80;99.90;;;6.21;100.00;100547.25;4154531;28;20041;-70
2022/01/09 07:39:34;;;;;;;14.52;4.10;;;6.90;99.90;;;6.15;100.00;100543.38;4156116;28;20029;-70
2022/01/09 07:41:35;;;;;;;13.52;3.08;;;6.70;99.90;;;6.22;100.00;100562.81;4175237;28;20041;-69
2022/01/09 07:43:36;;;;;;;21.98;4.45;;;6.80;99.90;;;6.08;100.00;100555.31;4162809;28;20081;-69
2022/01/09 07:45:38;;;;;;;16.63;3.92;;;6.60;99.90;;;6.15;100.00;100553.00;4151277;28;20037;-69
2022/01/09 07:47:40;;;;;;;17.77;4.03;;;6.70;99.90;;;6.04;100.00;100548.69;4151395;28;20050;-70
2022/01/09 07:49:41;;;;;;;9.43;3.80;;;6.80;99.90;;;6.15;100.00;100546.00;4151522;28;20037;-69
2022/01/09 07:51:42;;;;;;;18.10;5.65;;;6.70;99.90;;;6.17;100.00;100538.81;4151197;28;20030;-69
2022/01/09 07:53:43;;;;;;;13.77;3.88;;;6.70;99.90;;;6.16;100.00;100533.69;4150300;28;20030;-69
2022/01/09 07:55:43;;;;;;;14.60;4.63;;;6.70;99.90;;;6.09;100.00;100528.19;4173350;28;20733;-71
2022/01/09 07:57:45;;;;;;;17.90;4.22;;;6.80;99.90;;;6.25;100.00;100551.25;4153420;28;20097;-69
2022/01/09 07:59:46;;;;;;;22.52;5.43;;;6.80;99.90;;;6.22;100.00;100551.50;4142792;28;20030;-69
2022/01/09 08:01:47;;;;;;;14.27;4.22;;;6.70;99.90;;;6.28;100.00;100562.28;4167237;28;20449;-69
2022/01/09 08:03:48;;;;;;;21.30;6.18;;;6.70;99.90;;;6.20;100.00;100550.81;4150793;28;20022;-69
2022/01/09 08:05:49;;;;;;;15.70;3.72;;;6.80;99.90;;;6.19;100.00;100560.47;4149789;28;20505;-69
2022/01/09 08:07:50;;;;;;;17.30;5.95;;;6.90;99.90;;;6.17;100.00;100556.31;4166457;28;20054;-69
2022/01/09 08:09:51;;;;;;;13.73;4.60;;;6.70;99.90;;;6.25;100.00;100565.16;4154318;28;20052;-69
2022/01/09 08:11:52;;;;;;;18.83;4.13;;;6.80;99.90;;;6.38;100.00;100567.56;4152392;28;20033;-69
2022/01/09 08:13:54;;;;;;;10.90;4.13;;;6.90;99.90;;;6.35;100.00;100575.69;4166398;28;20033;-69
2022/01/09 08:15:55;;;;;;;21.17;4.95;;;6.10;99.90;;;6.20;100.00;100569.16;4158202;28;20089;-68
2022/01/09 08:17:56;;;;;;;23.35;5.10;;;6.30;99.90;;;6.40;100.00;100576.94;4150337;28;20116;-69
2022/01/09 08:19:57;;;;;;;18.38;5.43;;;6.90;99.90;;;6.41;100.00;100570.75;4166987;28;20365;-69
2022/01/09 08:22:03;;;;;;;20.33;6.18;;;7.10;99.90;;;6.46;100.00;100572.94;4160522;28;20065;-69
2022/01/09 08:24:04;;;;;;;19.38;5.05;;;7.10;99.90;;;6.51;100.00;100573.41;4150058;28;20030;-69
2022/01/09 08:26:05;;;;;;;17.40;5.30;;;7.10;99.90;;;6.58;100.00;100557.00;4163234;28;20033;-68
2022/01/09 08:28:06;;;;;;;17.17;5.93;;;7.20;99.90;;;6.55;100.00;100578.22;4150064;28;20026;-69